sensor_id;sensor_type;location;lat;lon;timestamp;pressure;altitude;pressure_sealevel;temperature;humidity
10097;BME280;5087;42.662;23.466;2023-07-20T00:00:35;95060.78;;;22.09;100.00
10097;BME280;5087;42.662;23.466;2023-07-20T00:03:13;95074.63;;;21.88;100.00
10097;BME280;5087;42.662;23.466;2023-07-20T00:05:45;95066.78;;;21.72;100.00
10097;BME280;5087;42.662;23.466;2023-07-20T00:08:14;95078.22;;;21.70;100.00
10097;BME280;5087;42.662;23.466;2023-07-20T00:10:42;95066.78;;;21.68;100.00
10097;BME280;5087;42.662;23.466;2023-07-20T00:13:09;95078.13;;;20.83;100.00
10097;BME280;5087;42.662;23.466;2023-07-20T00:15:37;95073.88;;;20.05;100.00
10097;BME280;5087;42.662;23.466;2023-07-20T00:18:04;95076.84;;;19.78;100.00
10097;BME280;5087;42.662;23.466;2023-07-20T00:20:31;95065.75;;;19.64;100.00
10097;BME280;5087;42.662;23.466;2023-07-20T00:22:59;95046.78;;;19.55;100.00
10097;BME280;5087;42.662;23.466;2023-07-20T00:25:28;95040.41;;;19.40;100.00
10097;BME280;5087;42.662;23.466;2023-07-20T00:27:55;95066.28;;;19.32;100.00
10097;BME280;5087;42.662;23.466;2023-07-20T00:30:22;95061.53;;;19.28;100.00
10097;BME280;5087;42.662;23.466;2023-07-20T00:32:50;95068.53;;;19.19;100.00
10097;BME280;5087;42.662;23.466;2023-07-20T00:35:17;95066.06;;;19.03;100.00
10097;BME280;5087;42.662;23.466;2023-07-20T00:37:45;95079.25;;;18.90;100.00
10097;BME280;5087;42.662;23.466;2023-07-20T00:40:12;95070.06;;;18.75;100.00
10097;BME280;5087;42.662;23.466;2023-07-20T00:42:41;95059.25;;;18.55;100.00
10097;BME280;5087;42.662;23.466;2023-07-20T00:45:08;95048.94;;;18.45;100.00
10097;BME280;5087;42.662;23.466;2023-07-20T00:47:36;95061.56;;;18.49;100.00
10097;BME280;5087;42.662;23.466;2023-07-20T00:50:05;95054.84;;;18.47;100.00
10097;BME280;5087;42.662;23.466;2023-07-20T00:52:33;95052.81;;;18.40;100.00
10097;BME280;5087;42.662;23.466;2023-07-20T00:55:01;95052.38;;;18.34;100.00
10097;BME280;5087;42.662;23.466;2023-07-20T00:57:29;95045.28;;;18.33;100.00
10097;BME280;5087;42.662;23.466;2023-07-20T01:00:03;95049.53;;;18.27;100.00
10097;BME280;5087;42.662;23.466;2023-07-20T01:02:30;95020.97;;;18.01;100.00
10097;BME280;5087;42.662;23.466;2023-07-20T01:04:59;95050.16;;;18.13;100.00
10097;BME280;5087;42.662;23.466;2023-07-20T01:07:32;95057.41;;;18.29;100.00
10097;BME280;5087;42.662;23.466;2023-07-20T01:10:03;95048.41;;;18.32;100.00
10097;BME280;5087;42.662;23.466;2023-07-20T01:12:38;95063.84;;;18.44;100.00
10097;BME280;5087;42.662;23.466;2023-07-20T01:15:10;95033.44;;;18.29;100.00
10097;BME280;5087;42.662;23.466;2023-07-20T01:17:37;95049.69;;;18.42;100.00
10097;BME280;5087;42.662;23.466;2023-07-20T01:20:07;95060.75;;;18.45;100.00
10097;BME280;5087;42.662;23.466;2023-07-20T01:23:05;95078.84;;;18.50;100.00
10097;BME280;5087;42.662;23.466;2023-07-20T01:28:48;95066.19;;;18.42;100.00
10097;BME280;5087;42.662;23.466;2023-07-20T01:31:27;95053.63;;;18.41;100.00
10097;BME280;5087;42.662;23.466;2023-07-20T01:33:56;95046.69;;;18.54;100.00
10097;BME280;5087;42.662;23.466;2023-07-20T01:36:26;95017.66;;;18.57;100.00
10097;BME280;5087;42.662;23.466;2023-07-20T01:38:56;95049.38;;;18.85;100.00
10097;BME280;5087;42.662;23.466;2023-07-20T01:41:24;95023.75;;;18.77;100.00
10097;BME280;5087;42.662;23.466;2023-07-20T01:43:51;95056.59;;;19.00;100.00
10097;BME280;5087;42.662;23.466;2023-07-20T01:46:19;95050.25;;;18.58;100.00
10097;BME280;5087;42.662;23.466;2023-07-20T01:48:48;95053.78;;;18.55;100.00
10097;BME280;5087;42.662;23.466;2023-07-20T01:51:16;95063.09;;;18.81;100.00
10097;BME280;5087;42.662;23.466;2023-07-20T01:53:44;95043.13;;;18.91;100.00
10097;BME280;5087;42.662;23.466;2023-07-20T01:56:13;95039.47;;;18.76;100.00
10097;BME280;5087;42.662;23.466;2023-07-20T01:58:41;95051.75;;;18.90;100.00
10097;BME280;5087;42.662;23.466;2023-07-20T02:01:09;95039.94;;;18.89;100.00
10097;BME280;5087;42.662;23.466;2023-07-20T02:03:36;95043.91;;;18.88;100.00
10097;BME280;5087;42.662;23.466;2023-07-20T02:06:05;95044.63;;;18.85;100.00
10097;BME280;5087;42.662;23.466;2023-07-20T02:08:32;95042.81;;;18.96;100.00
10097;BME280;5087;42.662;23.466;2023-07-20T02:10:59;95031.31;;;18.87;100.00
10097;BME280;5087;42.662;23.466;2023-07-20T02:13:26;95032.91;;;18.88;100.00
10097;BME280;5087;42.662;23.466;2023-07-20T02:15:54;95023.63;;;18.66;100.00
10097;BME280;5087;42.662;23.466;2023-07-20T02:18:21;95035.44;;;18.70;100.00
10097;BME280;5087;42.662;23.466;2023-07-20T02:20:48;95043.38;;;18.75;100.00
10097;BME280;5087;42.662;23.466;2023-07-20T02:23:20;95005.03;;;18.52;100.00
10097;BME280;5087;42.662;23.466;2023-07-20T02:25:47;95017.22;;;18.55;100.00
10097;BME280;5087;42.662;23.466;2023-07-20T02:28:14;95046.44;;;18.70;100.00
10097;BME280;5087;42.662;23.466;2023-07-20T02:30:42;95046.69;;;18.54;100.00
10097;BME280;5087;42.662;23.466;2023-07-20T02:33:09;95037.94;;;18.45;100.00
10097;BME280;5087;42.662;23.466;2023-07-20T02:35:37;95030.84;;;18.44;100.00
10097;BME280;5087;42.662;23.466;2023-07-20T02:38:04;95044.25;;;18.45;100.00
10097;BME280;5087;42.662;23.466;2023-07-20T02:40:34;95041.13;;;18.47;100.00
10097;BME280;5087;42.662;23.466;2023-07-20T02:43:01;95019.94;;;18.51;100.00
10097;BME280;5087;42.662;23.466;2023-07-20T02:45:29;95031.16;;;18.69;100.00
10097;BME280;5087;42.662;23.466;2023-07-20T02:47:57;95016.28;;;18.77;100.00
10097;BME280;5087;42.662;23.466;2023-07-20T02:50:24;95014.31;;;18.78;100.00
10097;BME280;5087;42.662;23.466;2023-07-20T02:52:52;95020.47;;;18.64;100.00
10097;BME280;5087;42.662;23.466;2023-07-20T02:55:22;94992.06;;;18.49;100.00
10097;BME280;5087;42.662;23.466;2023-07-20T02:57:51;95004.25;;;18.51;100.00
10097;BME280;5087;42.662;23.466;2023-07-20T03:00:21;95007.06;;;18.59;100.00
10097;BME280;5087;42.662;23.466;2023-07-20T03:02:49;95020.50;;;18.67;100.00
10097;BME280;5087;42.662;23.466;2023-07-20T03:05:21;95016.13;;;18.63;100.00
10097;BME280;5087;42.662;23.466;2023-07-20T03:07:51;95029.09;;;18.62;100.00
10097;BME280;5087;42.662;23.466;2023-07-20T03:10:18;95007.47;;;18.23;100.00
10097;BME280;5087;42.662;23.466;2023-07-20T03:12:45;95018.84;;;18.22;100.00
10097;BME280;5087;42.662;23.466;2023-07-20T03:15:15;95016.28;;;18.06;100.00
10097;BME280;5087;42.662;23.466;2023-07-20T03:17:42;95026.13;;;18.07;100.00
10097;BME280;5087;42.662;23.466;2023-07-20T03:20:11;95013.88;;;18.00;100.00
10097;BME280;5087;42.662;23.466;2023-07-20T03:22:39;95037.44;;;18.01;100.00
10097;BME280;5087;42.662;23.466;2023-07-20T03:25:07;95048.03;;;17.46;100.00
10097;BME280;5087;42.662;23.466;2023-07-20T03:27:35;95039.34;;;17.17;100.00
10097;BME280;5087;42.662;23.466;2023-07-20T03:30:03;95029.78;;;16.84;100.00
10097;BME280;5087;42.662;23.466;2023-07-20T03:32:34;95048.59;;;16.62;100.00
10097;BME280;5087;42.662;23.466;2023-07-20T03:35:02;95050.75;;;16.53;100.00
10097;BME280;5087;42.662;23.466;2023-07-20T03:37:29;95059.91;;;16.60;100.00
10097;BME280;5087;42.662;23.466;2023-07-20T03:39:56;95054.19;;;16.69;100.00
10097;BME280;5087;42.662;23.466;2023-07-20T03:42:23;95046.84;;;16.73;100.00
10097;BME280;5087;42.662;23.466;2023-07-20T03:44:52;95047.38;;;16.83;100.00
10097;BME280;5087;42.662;23.466;2023-07-20T03:47:21;95042.19;;;16.97;100.00
10097;BME280;5087;42.662;23.466;2023-07-20T03:49:51;95049.47;;;17.13;100.00
10097;BME280;5087;42.662;23.466;2023-07-20T03:52:18;95045.00;;;17.28;100.00
10097;BME280;5087;42.662;23.466;2023-07-20T03:54:45;95053.50;;;17.46;100.00
10097;BME280;5087;42.662;23.466;2023-07-20T03:57:13;95058.06;;;17.61;100.00
10097;BME280;5087;42.662;23.466;2023-07-20T03:59:45;95050.25;;;17.63;100.00
10097;BME280;5087;42.662;23.466;2023-07-20T04:02:12;95048.03;;;17.72;100.00
10097;BME280;5087;42.662;23.466;2023-07-20T04:04:42;95031.66;;;17.80;100.00
10097;BME280;5087;42.662;23.466;2023-07-20T04:07:11;95059.16;;;17.83;100.00
10097;BME280;5087;42.662;23.466;2023-07-20T04:09:41;95064.69;;;17.87;100.00
10097;BME280;5087;42.662;23.466;2023-07-20T04:12:09;95067.31;;;18.07;100.00
10097;BME280;5087;42.662;23.466;2023-07-20T04:14:36;95061.00;;;18.02;100.00
10097;BME280;5087;42.662;23.466;2023-07-20T04:17:03;95056.47;;;18.17;100.00
10097;BME280;5087;42.662;23.466;2023-07-20T04:19:31;95043.69;;;18.32;100.00
10097;BME280;5087;42.662;23.466;2023-07-20T04:21:58;95056.53;;;18.55;100.00
10097;BME280;5087;42.662;23.466;2023-07-20T04:24:31;95010.84;;;18.43;100.00
10097;BME280;5087;42.662;23.466;2023-07-20T04:26:58;95046.56;;;18.81;100.00
10097;BME280;5087;42.662;23.466;2023-07-20T04:29:25;95040.94;;;19.08;100.00
10097;BME280;5087;42.662;23.466;2023-07-20T04:31:52;95024.91;;;19.17;100.00
10097;BME280;5087;42.662;23.466;2023-07-20T04:34:20;95019.16;;;19.37;100.00
10097;BME280;5087;42.662;23.466;2023-07-20T04:36:48;95038.56;;;19.58;100.00
10097;BME280;5087;42.662;23.466;2023-07-20T04:39:15;95025.16;;;19.53;100.00
10097;BME280;5087;42.662;23.466;2023-07-20T04:41:45;95026.28;;;20.12;100.00
10097;BME280;5087;42.662;23.466;2023-07-20T04:44:13;95009.03;;;20.33;100.00
10097;BME280;5087;42.662;23.466;2023-07-20T04:46:40;95015.09;;;20.78;100.00
10097;BME280;5087;42.662;23.466;2023-07-20T04:49:08;95012.75;;;20.98;100.00
10097;BME280;5087;42.662;23.466;2023-07-20T04:51:39;94996.97;;;21.13;100.00
10097;BME280;5087;42.662;23.466;2023-07-20T04:54:07;95009.19;;;21.34;100.00
10097;BME280;5087;42.662;23.466;2023-07-20T04:56:37;95020.22;;;21.63;100.00
10097;BME280;5087;42.662;23.466;2023-07-20T04:59:09;95014.56;;;22.06;100.00
10097;BME280;5087;42.662;23.466;2023-07-20T05:01:36;95010.66;;;22.04;100.00
10097;BME280;5087;42.662;23.466;2023-07-20T05:04:05;95007.06;;;22.10;100.00
10097;BME280;5087;42.662;23.466;2023-07-20T05:06:32;95019.63;;;22.33;100.00
10097;BME280;5087;42.662;23.466;2023-07-20T05:09:00;95020.38;;;22.44;100.00
10097;BME280;5087;42.662;23.466;2023-07-20T05:11:27;95022.06;;;22.17;100.00
10097;BME280;5087;42.662;23.466;2023-07-20T05:13:54;95010.66;;;22.00;100.00
10097;BME280;5087;42.662;23.466;2023-07-20T05:16:23;95021.63;;;22.22;100.00
10097;BME280;5087;42.662;23.466;2023-07-20T05:18:51;94996.63;;;22.51;100.00
10097;BME280;5087;42.662;23.466;2023-07-20T05:21:21;95027.56;;;22.98;100.00
10097;BME280;5087;42.662;23.466;2023-07-20T05:23:48;95025.28;;;23.42;100.00
10097;BME280;5087;42.662;23.466;2023-07-20T05:26:17;95016.59;;;23.40;100.00
10097;BME280;5087;42.662;23.466;2023-07-20T05:28:46;95009.06;;;22.03;100.00
10097;BME280;5087;42.662;23.466;2023-07-20T05:31:14;94996.00;;;22.14;100.00
10097;BME280;5087;42.662;23.466;2023-07-20T05:33:43;94972.41;;;21.80;100.00
10097;BME280;5087;42.662;23.466;2023-07-20T05:36:10;95020.50;;;22.12;100.00
10097;BME280;5087;42.662;23.466;2023-07-20T05:38:37;95011.13;;;21.66;100.00
10097;BME280;5087;42.662;23.466;2023-07-20T05:41:05;95017.84;;;21.43;100.00
10097;BME280;5087;42.662;23.466;2023-07-20T05:43:36;95012.72;;;21.60;100.00
10097;BME280;5087;42.662;23.466;2023-07-20T05:46:03;95025.22;;;22.08;100.00
10097;BME280;5087;42.662;23.466;2023-07-20T05:48:30;95022.88;;;22.06;100.00
10097;BME280;5087;42.662;23.466;2023-07-20T05:50:59;95025.25;;;22.01;100.00
10097;BME280;5087;42.662;23.466;2023-07-20T05:53:27;95038.59;;;22.27;100.00
10097;BME280;5087;42.662;23.466;2023-07-20T05:55:54;95029.78;;;22.58;100.00
10097;BME280;5087;42.662;23.466;2023-07-20T05:58:24;95041.78;;;22.15;100.00
10097;BME280;5087;42.662;23.466;2023-07-20T06:00:53;95036.22;;;22.29;100.00
10097;BME280;5087;42.662;23.466;2023-07-20T06:03:20;95025.69;;;22.81;100.00
10097;BME280;5087;42.662;23.466;2023-07-20T06:05:48;95031.94;;;22.18;100.00
10097;BME280;5087;42.662;23.466;2023-07-20T06:08:16;95021.34;;;23.39;100.00
10097;BME280;5087;42.662;23.466;2023-07-20T06:10:44;95007.13;;;22.81;100.00
10097;BME280;5087;42.662;23.466;2023-07-20T06:13:11;95020.97;;;23.37;100.00
10097;BME280;5087;42.662;23.466;2023-07-20T06:15:38;95028.50;;;23.33;100.00
10097;BME280;5087;42.662;23.466;2023-07-20T06:18:06;95004.84;;;23.70;100.00
10097;BME280;5087;42.662;23.466;2023-07-20T06:20:34;95031.00;;;23.17;100.00
10097;BME280;5087;42.662;23.466;2023-07-20T06:23:01;95021.31;;;23.43;100.00
10097;BME280;5087;42.662;23.466;2023-07-20T06:25:29;95016.31;;;23.23;100.00
10097;BME280;5087;42.662;23.466;2023-07-20T06:27:56;95015.16;;;23.21;100.00
10097;BME280;5087;42.662;23.466;2023-07-20T06:30:24;95009.84;;;23.41;100.00
10097;BME280;5087;42.662;23.466;2023-07-20T06:32:51;95004.28;;;23.83;100.00
10097;BME280;5087;42.662;23.466;2023-07-20T06:35:18;95000.28;;;23.87;100.00
10097;BME280;5087;42.662;23.466;2023-07-20T06:37:48;94980.97;;;23.80;100.00
10097;BME280;5087;42.662;23.466;2023-07-20T06:40:16;94993.91;;;24.56;100.00
10097;BME280;5087;42.662;23.466;2023-07-20T06:42:44;94982.66;;;24.09;100.00
10097;BME280;5087;42.662;23.466;2023-07-20T06:45:11;94998.06;;;24.44;100.00
10097;BME280;5087;42.662;23.466;2023-07-20T06:47:39;94982.72;;;25.18;100.00
10097;BME280;5087;42.662;23.466;2023-07-20T06:50:07;94964.25;;;25.75;100.00
10097;BME280;5087;42.662;23.466;2023-07-20T06:52:34;95002.44;;;26.55;100.00
10097;BME280;5087;42.662;23.466;2023-07-20T06:55:02;94976.22;;;25.96;100.00
10097;BME280;5087;42.662;23.466;2023-07-20T06:57:29;95003.31;;;26.12;100.00
10097;BME280;5087;42.662;23.466;2023-07-20T06:59:58;95004.19;;;24.90;100.00
10097;BME280;5087;42.662;23.466;2023-07-20T07:02:25;95009.72;;;23.97;100.00
10097;BME280;5087;42.662;23.466;2023-07-20T07:04:52;95007.53;;;24.47;100.00
10097;BME280;5087;42.662;23.466;2023-07-20T07:07:20;95011.41;;;24.84;100.00
10097;BME280;5087;42.662;23.466;2023-07-20T07:09:47;95014.28;;;24.46;100.00
10097;BME280;5087;42.662;23.466;2023-07-20T07:12:15;95028.00;;;25.42;100.00
10097;BME280;5087;42.662;23.466;2023-07-20T07:14:42;95021.38;;;25.80;100.00
10097;BME280;5087;42.662;23.466;2023-07-20T07:17:11;95023.78;;;25.31;100.00
10097;BME280;5087;42.662;23.466;2023-07-20T07:19:38;95022.81;;;25.88;100.00
10097;BME280;5087;42.662;23.466;2023-07-20T07:22:06;95008.75;;;24.46;100.00
10097;BME280;5087;42.662;23.466;2023-07-20T07:24:33;95054.81;;;24.71;100.00
10097;BME280;5087;42.662;23.466;2023-07-20T07:27:00;95058.66;;;25.35;100.00
10097;BME280;5087;42.662;23.466;2023-07-20T07:29:28;95069.34;;;25.37;100.00
10097;BME280;5087;42.662;23.466;2023-07-20T07:31:55;95067.94;;;25.52;100.00
10097;BME280;5087;42.662;23.466;2023-07-20T07:34:24;95058.19;;;25.13;100.00
10097;BME280;5087;42.662;23.466;2023-07-20T07:36:52;95065.22;;;25.72;100.00
10097;BME280;5087;42.662;23.466;2023-07-20T07:39:22;95063.56;;;25.99;100.00
10097;BME280;5087;42.662;23.466;2023-07-20T07:41:50;95043.56;;;25.84;100.00
10097;BME280;5087;42.662;23.466;2023-07-20T07:44:17;95052.94;;;26.74;100.00
10097;BME280;5087;42.662;23.466;2023-07-20T07:46:47;95028.50;;;27.18;100.00
10097;BME280;5087;42.662;23.466;2023-07-20T07:49:14;95031.50;;;27.61;100.00
10097;BME280;5087;42.662;23.466;2023-07-20T07:51:43;95042.41;;;26.45;100.00
10097;BME280;5087;42.662;23.466;2023-07-20T07:54:10;95039.69;;;26.98;100.00
10097;BME280;5087;42.662;23.466;2023-07-20T07:56:38;95034.78;;;27.56;100.00
10097;BME280;5087;42.662;23.466;2023-07-20T07:59:05;95001.22;;;28.22;100.00
10097;BME280;5087;42.662;23.466;2023-07-20T08:01:32;94983.56;;;28.25;100.00
10097;BME280;5087;42.662;23.466;2023-07-20T08:04:00;94997.31;;;28.19;100.00
10097;BME280;5087;42.662;23.466;2023-07-20T08:06:27;95010.69;;;26.79;100.00
10097;BME280;5087;42.662;23.466;2023-07-20T08:08:56;95016.50;;;27.22;100.00
10097;BME280;5087;42.662;23.466;2023-07-20T08:11:23;94991.44;;;27.55;100.00
10097;BME280;5087;42.662;23.466;2023-07-20T08:13:50;95017.69;;;27.70;100.00
10097;BME280;5087;42.662;23.466;2023-07-20T08:16:18;95034.66;;;27.92;100.00
10097;BME280;5087;42.662;23.466;2023-07-20T08:18:47;95028.69;;;27.28;100.00
10097;BME280;5087;42.662;23.466;2023-07-20T08:21:14;95019.91;;;27.62;100.00
10097;BME280;5087;42.662;23.466;2023-07-20T08:23:42;95044.97;;;27.79;100.00
10097;BME280;5087;42.662;23.466;2023-07-20T08:26:11;95041.66;;;28.72;100.00
10097;BME280;5087;42.662;23.466;2023-07-20T08:28:38;95028.50;;;28.86;93.81
10097;BME280;5087;42.662;23.466;2023-07-20T08:31:06;95022.69;;;28.93;92.27
10097;BME280;5087;42.662;23.466;2023-07-20T08:33:33;95039.88;;;28.36;99.62
10097;BME280;5087;42.662;23.466;2023-07-20T08:36:01;95032.16;;;27.82;100.00
10097;BME280;5087;42.662;23.466;2023-07-20T08:38:29;95017.56;;;28.36;100.00
10097;BME280;5087;42.662;23.466;2023-07-20T08:40:57;95018.34;;;28.92;100.00
10097;BME280;5087;42.662;23.466;2023-07-20T08:43:28;95011.94;;;28.79;100.00
10097;BME280;5087;42.662;23.466;2023-07-20T08:45:55;95024.38;;;28.35;100.00
10097;BME280;5087;42.662;23.466;2023-07-20T08:48:24;95016.47;;;27.71;100.00
10097;BME280;5087;42.662;23.466;2023-07-20T08:50:58;95012.59;;;27.98;100.00
10097;BME280;5087;42.662;23.466;2023-07-20T08:53:27;95023.22;;;28.03;100.00
10097;BME280;5087;42.662;23.466;2023-07-20T08:55:55;95024.16;;;28.13;100.00
10097;BME280;5087;42.662;23.466;2023-07-20T08:58:23;95033.09;;;27.91;96.08
10097;BME280;5087;42.662;23.466;2023-07-20T09:00:54;95016.69;;;28.52;93.42
10097;BME280;5087;42.662;23.466;2023-07-20T09:03:21;95015.66;;;29.14;85.79
10097;BME280;5087;42.662;23.466;2023-07-20T09:05:49;94999.09;;;28.26;80.21
10097;BME280;5087;42.662;23.466;2023-07-20T09:08:16;94998.25;;;28.55;84.39
10097;BME280;5087;42.662;23.466;2023-07-20T09:10:43;95014.06;;;28.32;82.38
10097;BME280;5087;42.662;23.466;2023-07-20T09:13:14;95011.91;;;28.53;75.73
10097;BME280;5087;42.662;23.466;2023-07-20T09:15:46;95000.19;;;28.58;71.93
10097;BME280;5087;42.662;23.466;2023-07-20T09:18:23;94999.78;;;28.85;69.18
10097;BME280;5087;42.662;23.466;2023-07-20T09:20:51;95001.00;;;29.36;68.14
10097;BME280;5087;42.662;23.466;2023-07-20T09:23:18;95003.94;;;29.06;69.33
10097;BME280;5087;42.662;23.466;2023-07-20T09:25:47;95005.03;;;28.96;71.66
10097;BME280;5087;42.662;23.466;2023-07-20T09:28:16;95002.66;;;29.46;69.99
10097;BME280;5087;42.662;23.466;2023-07-20T09:30:44;94996.09;;;29.75;67.73
10097;BME280;5087;42.662;23.466;2023-07-20T09:33:21;95006.44;;;30.00;63.23
10097;BME280;5087;42.662;23.466;2023-07-20T09:35:49;94977.16;;;30.14;64.79
10097;BME280;5087;42.662;23.466;2023-07-20T09:38:16;94986.53;;;30.43;63.84
10097;BME280;5087;42.662;23.466;2023-07-20T09:40:43;94992.06;;;29.15;67.24
10097;BME280;5087;42.662;23.466;2023-07-20T09:43:12;94992.19;;;29.73;65.65
10097;BME280;5087;42.662;23.466;2023-07-20T09:45:40;94974.47;;;29.53;66.21
10097;BME280;5087;42.662;23.466;2023-07-20T09:48:09;94980.56;;;30.09;64.60
10097;BME280;5087;42.662;23.466;2023-07-20T09:50:41;94975.34;;;30.21;63.46
10097;BME280;5087;42.662;23.466;2023-07-20T09:53:11;94940.00;;;30.14;61.63
10097;BME280;5087;42.662;23.466;2023-07-20T09:55:40;94956.56;;;30.75;62.22
10097;BME280;5087;42.662;23.466;2023-07-20T09:58:09;94956.91;;;30.55;59.57
10097;BME280;5087;42.662;23.466;2023-07-20T10:00:38;94959.28;;;30.97;60.18
10097;BME280;5087;42.662;23.466;2023-07-20T10:03:08;94950.22;;;31.34;58.83
10097;BME280;5087;42.662;23.466;2023-07-20T10:05:45;94947.22;;;31.09;59.64
10097;BME280;5087;42.662;23.466;2023-07-20T10:08:15;94925.44;;;31.23;58.42
10097;BME280;5087;42.662;23.466;2023-07-20T10:10:44;94938.25;;;29.24;63.30
10097;BME280;5087;42.662;23.466;2023-07-20T10:13:21;94934.13;;;29.77;62.73
10097;BME280;5087;42.662;23.466;2023-07-20T10:15:55;94945.88;;;29.36;63.49
10097;BME280;5087;42.662;23.466;2023-07-20T10:18:28;94944.59;;;29.85;59.67
10097;BME280;5087;42.662;23.466;2023-07-20T10:20:59;94951.69;;;29.29;61.01
10097;BME280;5087;42.662;23.466;2023-07-20T10:23:28;94944.44;;;29.19;58.19
10097;BME280;5087;42.662;23.466;2023-07-20T10:25:57;94957.78;;;29.63;59.08
10097;BME280;5087;42.662;23.466;2023-07-20T10:28:33;94934.44;;;29.57;58.23
10097;BME280;5087;42.662;23.466;2023-07-20T10:31:10;94957.25;;;30.12;57.30
10097;BME280;5087;42.662;23.466;2023-07-20T10:33:56;94966.38;;;30.04;56.37
10097;BME280;5087;42.662;23.466;2023-07-20T10:36:28;94963.75;;;29.52;56.25
10097;BME280;5087;42.662;23.466;2023-07-20T10:38:56;94963.00;;;29.74;57.43
10097;BME280;5087;42.662;23.466;2023-07-20T10:41:33;94941.69;;;29.89;56.89
10097;BME280;5087;42.662;23.466;2023-07-20T10:44:01;94934.69;;;29.72;58.24
10097;BME280;5087;42.662;23.466;2023-07-20T10:46:42;94941.41;;;29.26;57.55
10097;BME280;5087;42.662;23.466;2023-07-20T10:49:11;94946.47;;;29.05;57.71
10097;BME280;5087;42.662;23.466;2023-07-20T10:51:42;94930.63;;;28.77;57.63
10097;BME280;5087;42.662;23.466;2023-07-20T10:54:33;94950.38;;;29.08;57.77
10097;BME280;5087;42.662;23.466;2023-07-20T10:57:23;94922.94;;;29.42;57.60
10097;BME280;5087;42.662;23.466;2023-07-20T10:59:50;94860.84;;;29.12;56.45
10097;BME280;5087;42.662;23.466;2023-07-20T11:02:18;94896.41;;;29.46;57.00
10097;BME280;5087;42.662;23.466;2023-07-20T11:04:47;94924.41;;;29.91;56.49
10097;BME280;5087;42.662;23.466;2023-07-20T11:07:36;94903.09;;;30.28;54.96
10097;BME280;5087;42.662;23.466;2023-07-20T11:10:13;94892.78;;;30.25;52.78
10097;BME280;5087;42.662;23.466;2023-07-20T11:12:41;94874.72;;;30.17;52.77
10097;BME280;5087;42.662;23.466;2023-07-20T11:15:08;94894.00;;;30.46;54.34
10097;BME280;5087;42.662;23.466;2023-07-20T11:17:35;94864.41;;;30.77;53.79
10097;BME280;5087;42.662;23.466;2023-07-20T11:20:05;94870.78;;;31.37;52.30
10097;BME280;5087;42.662;23.466;2023-07-20T11:22:34;94873.22;;;32.18;50.33
10097;BME280;5087;42.662;23.466;2023-07-20T11:25:03;94869.66;;;32.09;48.85
10097;BME280;5087;42.662;23.466;2023-07-20T11:27:31;94878.25;;;31.86;48.94
10097;BME280;5087;42.662;23.466;2023-07-20T11:29:58;94874.19;;;32.06;46.73
10097;BME280;5087;42.662;23.466;2023-07-20T11:32:25;94844.63;;;31.68;48.18
10097;BME280;5087;42.662;23.466;2023-07-20T11:34:52;94862.13;;;32.15;47.52
10097;BME280;5087;42.662;23.466;2023-07-20T11:37:22;94869.38;;;31.79;48.69
10097;BME280;5087;42.662;23.466;2023-07-20T11:39:55;94857.38;;;31.87;47.81
10097;BME280;5087;42.662;23.466;2023-07-20T11:42:23;94863.78;;;31.41;48.66
10097;BME280;5087;42.662;23.466;2023-07-20T11:44:51;94844.13;;;31.79;49.33
10097;BME280;5087;42.662;23.466;2023-07-20T11:47:19;94843.50;;;31.56;48.52
10097;BME280;5087;42.662;23.466;2023-07-20T11:49:46;94848.03;;;31.81;49.86
10097;BME280;5087;42.662;23.466;2023-07-20T11:52:19;94842.41;;;31.72;51.26
10097;BME280;5087;42.662;23.466;2023-07-20T11:54:47;94848.81;;;31.72;51.57
10097;BME280;5087;42.662;23.466;2023-07-20T11:57:19;94837.78;;;32.21;50.04
10097;BME280;5087;42.662;23.466;2023-07-20T11:59:54;94834.84;;;32.25;51.78
10097;BME280;5087;42.662;23.466;2023-07-20T12:02:22;94822.69;;;32.09;51.57
10097;BME280;5087;42.662;23.466;2023-07-20T12:04:50;94829.66;;;32.66;50.40
10097;BME280;5087;42.662;23.466;2023-07-20T12:07:18;94818.84;;;32.40;51.32
10097;BME280;5087;42.662;23.466;2023-07-20T12:10:03;94798.19;;;31.20;52.45
10097;BME280;5087;42.662;23.466;2023-07-20T12:12:32;94829.31;;;31.32;53.88
10097;BME280;5087;42.662;23.466;2023-07-20T12:15:16;94824.66;;;31.66;52.43
10097;BME280;5087;42.662;23.466;2023-07-20T12:17:44;94818.28;;;32.17;51.40
10097;BME280;5087;42.662;23.466;2023-07-20T12:20:12;94800.97;;;31.76;50.03
10097;BME280;5087;42.662;23.466;2023-07-20T12:22:40;94802.34;;;31.62;49.80
10097;BME280;5087;42.662;23.466;2023-07-20T12:25:08;94804.34;;;31.89;49.53
10097;BME280;5087;42.662;23.466;2023-07-20T12:27:37;94787.53;;;31.71;49.64
10097;BME280;5087;42.662;23.466;2023-07-20T12:30:06;94803.84;;;32.53;47.57
10097;BME280;5087;42.662;23.466;2023-07-20T12:32:33;94788.06;;;31.41;47.40
10097;BME280;5087;42.662;23.466;2023-07-20T12:35:00;94796.59;;;31.75;50.86
10097;BME280;5087;42.662;23.466;2023-07-20T12:37:27;94775.06;;;31.81;47.87
10097;BME280;5087;42.662;23.466;2023-07-20T12:39:55;94793.31;;;31.58;46.71
10097;BME280;5087;42.662;23.466;2023-07-20T12:42:22;94788.75;;;31.98;46.36
10097;BME280;5087;42.662;23.466;2023-07-20T12:44:54;94787.72;;;32.19;46.75
10097;BME280;5087;42.662;23.466;2023-07-20T12:47:21;94788.97;;;32.28;46.94
10097;BME280;5087;42.662;23.466;2023-07-20T12:49:48;94777.84;;;32.91;46.99
10097;BME280;5087;42.662;23.466;2023-07-20T12:52:16;94774.81;;;33.04;46.29
10097;BME280;5087;42.662;23.466;2023-07-20T12:54:43;94782.03;;;32.38;48.17
10097;BME280;5087;42.662;23.466;2023-07-20T12:57:10;94758.75;;;32.13;47.92
10097;BME280;5087;42.662;23.466;2023-07-20T12:59:37;94768.09;;;32.10;48.15
10097;BME280;5087;42.662;23.466;2023-07-20T13:02:06;94765.25;;;32.87;47.08
10097;BME280;5087;42.662;23.466;2023-07-20T13:04:33;94758.06;;;32.86;47.40